Oak Island, North Carolina
Current Conditions -  °F | °C
As of 6:55 AM on Monday 24 Nov 2014 (Local Time) from KSUT Reporting Station
Haze Haze  
Wind Chill: 19°   Ceiling: 7000
Heat Index: 19°   Visibility: 4mi
Dew Point: 18°   Wind: 6mph
Humidity: 98%   Direction: 230°SW
Pressure: 29.87"   Gusts: NA
Location:  33.92°N, 78.16°W
Report Text: KSUT 241155Z AUTO 23005KT 4SM BR SCT001 SCT014 OVC070 19/18 A2987 RMK AO2 P0001 60002 70137 T01850181 10190 20175
Loading
Personal Weather Stations






























Interactive Weather Map New forecast layout! Learn more

10-Day Weather Forecast

Advertisements
Track Severe Weather on mobile